sensor_id;sensor_type;location;lat;lon;timestamp;P1;durP1;ratioP1;P2;durP2;ratioP2
58926;SDS011;44712;52.530;9.760;2022-08-11T00:03:13;6.68;;;3.67;;
58926;SDS011;44712;52.530;9.760;2022-08-11T00:05:44;8.35;;;4.50;;
58926;SDS011;44712;52.530;9.760;2022-08-11T00:08:20;4.72;;;4.00;;
58926;SDS011;44712;52.530;9.760;2022-08-11T00:11:03;5.10;;;4.07;;
58926;SDS011;44712;52.530;9.760;2022-08-11T00:13:40;6.63;;;4.07;;
58926;SDS011;44712;52.530;9.760;2022-08-11T00:16:14;5.60;;;3.80;;
58926;SDS011;44712;52.530;9.760;2022-08-11T00:18:46;4.82;;;4.20;;
58926;SDS011;44712;52.530;9.760;2022-08-11T00:21:17;5.07;;;4.30;;
58926;SDS011;44712;52.530;9.760;2022-08-11T00:24:08;5.63;;;4.00;;
58926;SDS011;44712;52.530;9.760;2022-08-11T00:26:39;6.13;;;4.03;;
58926;SDS011;44712;52.530;9.760;2022-08-11T00:29:09;6.22;;;4.35;;
58926;SDS011;44712;52.530;9.760;2022-08-11T00:31:37;5.85;;;4.55;;
58926;SDS011;44712;52.530;9.760;2022-08-11T00:34:11;4.97;;;3.90;;
58926;SDS011;44712;52.530;9.760;2022-08-11T00:36:50;6.50;;;4.88;;
58926;SDS011;44712;52.530;9.760;2022-08-11T00:39:21;5.07;;;3.90;;
58926;SDS011;44712;52.530;9.760;2022-08-11T00:50:35;5.53;;;4.38;;
58926;SDS011;44712;52.530;9.760;2022-08-11T00:56:13;7.13;;;4.40;;
58926;SDS011;44712;52.530;9.760;2022-08-11T01:10:58;6.78;;;4.60;;
58926;SDS011;44712;52.530;9.760;2022-08-11T01:44:35;6.65;;;5.20;;
58926;SDS011;44712;52.530;9.760;2022-08-11T01:53:25;11.27;;;6.00;;
58926;SDS011;44712;52.530;9.760;2022-08-11T02:02:00;8.80;;;6.20;;
58926;SDS011;44712;52.530;9.760;2022-08-11T02:05:02;7.10;;;6.07;;
58926;SDS011;44712;52.530;9.760;2022-08-11T02:11:21;11.48;;;6.47;;
58926;SDS011;44712;52.530;9.760;2022-08-11T02:16:47;8.63;;;6.38;;
58926;SDS011;44712;52.530;9.760;2022-08-11T02:25:20;9.60;;;6.60;;
58926;SDS011;44712;52.530;9.760;2022-08-11T02:28:09;7.35;;;5.70;;
58926;SDS011;44712;52.530;9.760;2022-08-11T02:30:59;10.73;;;5.78;;
58926;SDS011;44712;52.530;9.760;2022-08-11T02:37:00;9.82;;;6.60;;
58926;SDS011;44712;52.530;9.760;2022-08-11T02:47:59;9.38;;;6.80;;
58926;SDS011;44712;52.530;9.760;2022-08-11T02:50:59;7.07;;;6.30;;
58926;SDS011;44712;52.530;9.760;2022-08-11T02:54:00;10.88;;;6.72;;
58926;SDS011;44712;52.530;9.760;2022-08-11T03:08:03;10.68;;;6.70;;
58926;SDS011;44712;52.530;9.760;2022-08-11T03:21:41;9.73;;;7.38;;
58926;SDS011;44712;52.530;9.760;2022-08-11T03:35:36;11.25;;;7.25;;
58926;SDS011;44712;52.530;9.760;2022-08-11T03:38:13;11.93;;;7.20;;
58926;SDS011;44712;52.530;9.760;2022-08-11T03:40:56;13.13;;;7.80;;
58926;SDS011;44712;52.530;9.760;2022-08-11T03:44:17;12.73;;;7.93;;
58926;SDS011;44712;52.530;9.760;2022-08-11T03:47:08;15.75;;;8.23;;
58926;SDS011;44712;52.530;9.760;2022-08-11T03:58:24;11.60;;;7.55;;
58926;SDS011;44712;52.530;9.760;2022-08-11T04:01:31;9.73;;;7.47;;
58926;SDS011;44712;52.530;9.760;2022-08-11T04:04:14;12.35;;;7.75;;
58926;SDS011;44712;52.530;9.760;2022-08-11T04:27:34;10.38;;;6.95;;
58926;SDS011;44712;52.530;9.760;2022-08-11T04:30:29;11.43;;;7.95;;
58926;SDS011;44712;52.530;9.760;2022-08-11T04:48:13;11.32;;;7.97;;
58926;SDS011;44712;52.530;9.760;2022-08-11T05:00:55;11.32;;;7.70;;
58926;SDS011;44712;52.530;9.760;2022-08-11T05:12:48;13.97;;;7.17;;
58926;SDS011;44712;52.530;9.760;2022-08-11T05:15:19;13.07;;;7.32;;
58926;SDS011;44712;52.530;9.760;2022-08-11T05:18:18;10.88;;;8.00;;
58926;SDS011;44712;52.530;9.760;2022-08-11T05:21:08;13.45;;;8.45;;
58926;SDS011;44712;52.530;9.760;2022-08-11T05:24:12;12.30;;;7.82;;
58926;SDS011;44712;52.530;9.760;2022-08-11T05:27:04;11.50;;;7.95;;
58926;SDS011;44712;52.530;9.760;2022-08-11T05:29:56;9.43;;;7.13;;
58926;SDS011;44712;52.530;9.760;2022-08-11T05:32:54;11.52;;;7.70;;
58926;SDS011;44712;52.530;9.760;2022-08-11T05:35:47;12.02;;;7.57;;
58926;SDS011;44712;52.530;9.760;2022-08-11T05:38:29;11.40;;;7.50;;
58926;SDS011;44712;52.530;9.760;2022-08-11T05:41:18;11.25;;;7.75;;
58926;SDS011;44712;52.530;9.760;2022-08-11T05:44:06;11.77;;;8.27;;
58926;SDS011;44712;52.530;9.760;2022-08-11T05:46:51;13.23;;;7.72;;
58926;SDS011;44712;52.530;9.760;2022-08-11T05:49:38;17.27;;;8.55;;
58926;SDS011;44712;52.530;9.760;2022-08-11T05:52:27;12.30;;;7.40;;
58926;SDS011;44712;52.530;9.760;2022-08-11T05:55:24;13.70;;;7.80;;
58926;SDS011;44712;52.530;9.760;2022-08-11T05:58:36;12.73;;;7.38;;
58926;SDS011;44712;52.530;9.760;2022-08-11T06:01:09;12.20;;;7.95;;
58926;SDS011;44712;52.530;9.760;2022-08-11T06:03:38;12.88;;;7.50;;
58926;SDS011;44712;52.530;9.760;2022-08-11T06:06:28;9.63;;;7.05;;
58926;SDS011;44712;52.530;9.760;2022-08-11T06:08:56;11.27;;;7.90;;
58926;SDS011;44712;52.530;9.760;2022-08-11T06:11:24;12.40;;;7.80;;
58926;SDS011;44712;52.530;9.760;2022-08-11T06:14:10;12.45;;;6.47;;
58926;SDS011;44712;52.530;9.760;2022-08-11T06:16:40;16.20;;;6.30;;
58926;SDS011;44712;52.530;9.760;2022-08-11T06:19:08;11.85;;;7.35;;
58926;SDS011;44712;52.530;9.760;2022-08-11T06:21:35;12.48;;;7.68;;
58926;SDS011;44712;52.530;9.760;2022-08-11T06:24:04;10.82;;;7.38;;
58926;SDS011;44712;52.530;9.760;2022-08-11T06:29:26;8.30;;;6.43;;
58926;SDS011;44712;52.530;9.760;2022-08-11T06:32:13;8.27;;;6.32;;
58926;SDS011;44712;52.530;9.760;2022-08-11T06:37:22;10.68;;;6.75;;
58926;SDS011;44712;52.530;9.760;2022-08-11T06:40:09;9.68;;;6.40;;
58926;SDS011;44712;52.530;9.760;2022-08-11T06:42:57;8.45;;;6.13;;
58926;SDS011;44712;52.530;9.760;2022-08-11T06:45:36;11.38;;;6.82;;
58926;SDS011;44712;52.530;9.760;2022-08-11T06:48:29;10.98;;;7.00;;
58926;SDS011;44712;52.530;9.760;2022-08-11T06:50:59;9.90;;;6.28;;
58926;SDS011;44712;52.530;9.760;2022-08-11T06:56:34;9.60;;;6.38;;
58926;SDS011;44712;52.530;9.760;2022-08-11T06:59:42;11.05;;;7.03;;
58926;SDS011;44712;52.530;9.760;2022-08-11T07:02:30;8.85;;;5.93;;
58926;SDS011;44712;52.530;9.760;2022-08-11T07:11:08;9.30;;;6.38;;
58926;SDS011;44712;52.530;9.760;2022-08-11T07:14:15;10.20;;;7.07;;
58926;SDS011;44712;52.530;9.760;2022-08-11T07:17:07;10.27;;;6.07;;
58926;SDS011;44712;52.530;9.760;2022-08-11T07:19:38;9.43;;;6.57;;
58926;SDS011;44712;52.530;9.760;2022-08-11T07:22:31;8.30;;;5.97;;
58926;SDS011;44712;52.530;9.760;2022-08-11T07:25:19;10.70;;;5.88;;
58926;SDS011;44712;52.530;9.760;2022-08-11T07:28:10;8.65;;;5.93;;
58926;SDS011;44712;52.530;9.760;2022-08-11T07:31:08;7.57;;;5.95;;
58926;SDS011;44712;52.530;9.760;2022-08-11T07:33:44;8.50;;;6.20;;
58926;SDS011;44712;52.530;9.760;2022-08-11T07:36:36;7.88;;;5.30;;
58926;SDS011;44712;52.530;9.760;2022-08-11T07:39:07;7.97;;;5.60;;
58926;SDS011;44712;52.530;9.760;2022-08-11T07:41:40;6.65;;;5.47;;
58926;SDS011;44712;52.530;9.760;2022-08-11T07:44:08;8.68;;;5.97;;
58926;SDS011;44712;52.530;9.760;2022-08-11T07:46:49;8.43;;;5.68;;
58926;SDS011;44712;52.530;9.760;2022-08-11T07:49:35;6.88;;;5.65;;
58926;SDS011;44712;52.530;9.760;2022-08-11T07:52:22;7.88;;;5.32;;
58926;SDS011;44712;52.530;9.760;2022-08-11T07:55:01;7.07;;;5.60;;
58926;SDS011;44712;52.530;9.760;2022-08-11T07:57:33;6.60;;;4.80;;
58926;SDS011;44712;52.530;9.760;2022-08-11T08:00:39;9.50;;;5.45;;
58926;SDS011;44712;52.530;9.760;2022-08-11T08:03:35;7.65;;;5.30;;
58926;SDS011;44712;52.530;9.760;2022-08-11T08:06:22;5.85;;;4.80;;
58926;SDS011;44712;52.530;9.760;2022-08-11T08:09:08;6.78;;;4.75;;
58926;SDS011;44712;52.530;9.760;2022-08-11T08:11:54;10.75;;;4.50;;
58926;SDS011;44712;52.530;9.760;2022-08-11T08:14:41;8.27;;;5.28;;
58926;SDS011;44712;52.530;9.760;2022-08-11T08:17:27;6.53;;;4.65;;
58926;SDS011;44712;52.530;9.760;2022-08-11T08:20:47;5.85;;;4.28;;
58926;SDS011;44712;52.530;9.760;2022-08-11T08:23:19;5.80;;;4.25;;
58926;SDS011;44712;52.530;9.760;2022-08-11T08:26:02;5.53;;;4.38;;
58926;SDS011;44712;52.530;9.760;2022-08-11T08:28:52;4.90;;;4.47;;
58926;SDS011;44712;52.530;9.760;2022-08-11T08:31:41;7.15;;;4.85;;
58926;SDS011;44712;52.530;9.760;2022-08-11T08:34:09;7.65;;;4.22;;
58926;SDS011;44712;52.530;9.760;2022-08-11T08:36:36;6.20;;;4.50;;
58926;SDS011;44712;52.530;9.760;2022-08-11T08:39:05;6.75;;;5.10;;
58926;SDS011;44712;52.530;9.760;2022-08-11T08:41:32;6.22;;;4.80;;
58926;SDS011;44712;52.530;9.760;2022-08-11T08:44:07;5.72;;;4.47;;
58926;SDS011;44712;52.530;9.760;2022-08-11T08:46:55;6.57;;;4.55;;
58926;SDS011;44712;52.530;9.760;2022-08-11T08:49:25;4.97;;;3.95;;
58926;SDS011;44712;52.530;9.760;2022-08-11T08:52:00;6.25;;;3.95;;
58926;SDS011;44712;52.530;9.760;2022-08-11T08:54:51;5.72;;;4.13;;
58926;SDS011;44712;52.530;9.760;2022-08-11T08:57:22;6.15;;;3.88;;
58926;SDS011;44712;52.530;9.760;2022-08-11T08:59:53;5.47;;;3.90;;
58926;SDS011;44712;52.530;9.760;2022-08-11T09:02:25;7.35;;;3.90;;
58926;SDS011;44712;52.530;9.760;2022-08-11T09:05:00;5.65;;;3.80;;
58926;SDS011;44712;52.530;9.760;2022-08-11T09:07:28;4.13;;;3.72;;
58926;SDS011;44712;52.530;9.760;2022-08-11T09:10:04;4.05;;;3.40;;
58926;SDS011;44712;52.530;9.760;2022-08-11T09:12:33;3.80;;;2.90;;
58926;SDS011;44712;52.530;9.760;2022-08-11T09:15:11;3.70;;;3.30;;
58926;SDS011;44712;52.530;9.760;2022-08-11T09:17:54;4.97;;;2.85;;
58926;SDS011;44712;52.530;9.760;2022-08-11T09:20:32;4.18;;;3.08;;
58926;SDS011;44712;52.530;9.760;2022-08-11T09:23:09;4.28;;;2.05;;
58926;SDS011;44712;52.530;9.760;2022-08-11T09:26:15;4.25;;;2.70;;
58926;SDS011;44712;52.530;9.760;2022-08-11T09:29:02;7.38;;;2.95;;
58926;SDS011;44712;52.530;9.760;2022-08-11T09:31:30;6.82;;;2.80;;
58926;SDS011;44712;52.530;9.760;2022-08-11T09:34:05;2.70;;;2.50;;
58926;SDS011;44712;52.530;9.760;2022-08-11T09:36:33;4.72;;;2.85;;
58926;SDS011;44712;52.530;9.760;2022-08-11T09:39:18;4.00;;;2.38;;
58926;SDS011;44712;52.530;9.760;2022-08-11T09:42:04;3.65;;;2.20;;
58926;SDS011;44712;52.530;9.760;2022-08-11T09:44:36;4.50;;;2.08;;
58926;SDS011;44712;52.530;9.760;2022-08-11T09:47:22;2.90;;;2.17;;
58926;SDS011;44712;52.530;9.760;2022-08-11T09:49:54;3.50;;;2.33;;
58926;SDS011;44712;52.530;9.760;2022-08-11T09:52:26;4.88;;;2.33;;
58926;SDS011;44712;52.530;9.760;2022-08-11T09:54:56;3.67;;;2.50;;
58926;SDS011;44712;52.530;9.760;2022-08-11T09:57:24;2.40;;;2.20;;
58926;SDS011;44712;52.530;9.760;2022-08-11T10:00:10;3.17;;;2.25;;
58926;SDS011;44712;52.530;9.760;2022-08-11T10:02:44;4.47;;;2.15;;
58926;SDS011;44712;52.530;9.760;2022-08-11T10:05:13;3.33;;;2.28;;
58926;SDS011;44712;52.530;9.760;2022-08-11T10:08:02;3.95;;;1.95;;
58926;SDS011;44712;52.530;9.760;2022-08-11T10:10:30;2.80;;;2.60;;
58926;SDS011;44712;52.530;9.760;2022-08-11T10:13:02;2.67;;;2.20;;
58926;SDS011;44712;52.530;9.760;2022-08-11T10:15:53;7.38;;;2.50;;
58926;SDS011;44712;52.530;9.760;2022-08-11T10:18:40;2.97;;;2.10;;
58926;SDS011;44712;52.530;9.760;2022-08-11T10:21:28;3.42;;;2.28;;
58926;SDS011;44712;52.530;9.760;2022-08-11T10:24:04;4.78;;;2.22;;
58926;SDS011;44712;52.530;9.760;2022-08-11T10:26:52;3.05;;;2.08;;
58926;SDS011;44712;52.530;9.760;2022-08-11T10:35:23;3.78;;;2.45;;
58926;SDS011;44712;52.530;9.760;2022-08-11T10:37:52;3.75;;;2.33;;
58926;SDS011;44712;52.530;9.760;2022-08-11T10:40:44;2.83;;;2.00;;
58926;SDS011;44712;52.530;9.760;2022-08-11T10:43:33;2.15;;;1.88;;
58926;SDS011;44712;52.530;9.760;2022-08-11T10:46:22;3.83;;;2.40;;
58926;SDS011;44712;52.530;9.760;2022-08-11T10:49:08;3.97;;;2.33;;
58926;SDS011;44712;52.530;9.760;2022-08-11T10:51:36;7.85;;;2.35;;
58926;SDS011;44712;52.530;9.760;2022-08-11T10:54:24;4.43;;;2.22;;
58926;SDS011;44712;52.530;9.760;2022-08-11T10:57:10;3.67;;;2.22;;
58926;SDS011;44712;52.530;9.760;2022-08-11T10:59:55;2.42;;;2.22;;
58926;SDS011;44712;52.530;9.760;2022-08-11T11:02:23;3.00;;;1.80;;
58926;SDS011;44712;52.530;9.760;2022-08-11T11:07:58;3.45;;;1.80;;
58926;SDS011;44712;52.530;9.760;2022-08-11T11:10:55;2.65;;;1.90;;
58926;SDS011;44712;52.530;9.760;2022-08-11T11:13:23;2.20;;;2.00;;
58926;SDS011;44712;52.530;9.760;2022-08-11T11:16:22;4.35;;;2.28;;
58926;SDS011;44712;52.530;9.760;2022-08-11T11:19:09;2.75;;;2.30;;
58926;SDS011;44712;52.530;9.760;2022-08-11T11:21:37;4.53;;;2.08;;
58926;SDS011;44712;52.530;9.760;2022-08-11T11:24:31;2.80;;;1.98;;
58926;SDS011;44712;52.530;9.760;2022-08-11T11:27:23;4.20;;;2.00;;
58926;SDS011;44712;52.530;9.760;2022-08-11T11:29:56;3.92;;;2.20;;
58926;SDS011;44712;52.530;9.760;2022-08-11T11:35:12;3.20;;;2.10;;
58926;SDS011;44712;52.530;9.760;2022-08-11T11:37:42;3.72;;;2.08;;
58926;SDS011;44712;52.530;9.760;2022-08-11T11:40:30;3.03;;;1.88;;
58926;SDS011;44712;52.530;9.760;2022-08-11T11:42:58;2.72;;;1.88;;
58926;SDS011;44712;52.530;9.760;2022-08-11T11:45:26;4.32;;;1.77;;
58926;SDS011;44712;52.530;9.760;2022-08-11T11:47:54;3.75;;;1.77;;
58926;SDS011;44712;52.530;9.760;2022-08-11T11:50:32;3.53;;;1.77;;
58926;SDS011;44712;52.530;9.760;2022-08-11T11:53:03;2.85;;;1.77;;
58926;SDS011;44712;52.530;9.760;2022-08-11T11:55:32;3.65;;;2.08;;
58926;SDS011;44712;52.530;9.760;2022-08-11T11:58:00;2.80;;;2.05;;
58926;SDS011;44712;52.530;9.760;2022-08-11T12:00:48;2.72;;;2.00;;
58926;SDS011;44712;52.530;9.760;2022-08-11T12:03:36;4.03;;;2.10;;
58926;SDS011;44712;52.530;9.760;2022-08-11T12:06:05;2.35;;;2.00;;
58926;SDS011;44712;52.530;9.760;2022-08-11T12:08:34;2.92;;;1.85;;
58926;SDS011;44712;52.530;9.760;2022-08-11T12:11:02;2.83;;;1.80;;
58926;SDS011;44712;52.530;9.760;2022-08-11T12:13:54;2.38;;;1.88;;
58926;SDS011;44712;52.530;9.760;2022-08-11T12:16:24;3.30;;;1.88;;
58926;SDS011;44712;52.530;9.760;2022-08-11T12:19:05;5.72;;;2.08;;
58926;SDS011;44712;52.530;9.760;2022-08-11T12:21:40;3.58;;;2.28;;
58926;SDS011;44712;52.530;9.760;2022-08-11T12:24:27;2.33;;;1.90;;
58926;SDS011;44712;52.530;9.760;2022-08-11T12:27:13;2.83;;;1.90;;
58926;SDS011;44712;52.530;9.760;2022-08-11T12:29:58;2.45;;;1.92;;
58926;SDS011;44712;52.530;9.760;2022-08-11T12:32:30;2.42;;;1.90;;
58926;SDS011;44712;52.530;9.760;2022-08-11T12:35:00;3.03;;;2.08;;
58926;SDS011;44712;52.530;9.760;2022-08-11T12:37:41;4.70;;;2.50;;
58926;SDS011;44712;52.530;9.760;2022-08-11T12:40:18;2.47;;;2.03;;
58926;SDS011;44712;52.530;9.760;2022-08-11T12:43:28;2.47;;;2.20;;
58926;SDS011;44712;52.530;9.760;2022-08-11T12:46:22;3.55;;;1.98;;
58926;SDS011;44712;52.530;9.760;2022-08-11T12:48:57;3.00;;;2.10;;
58926;SDS011;44712;52.530;9.760;2022-08-11T12:51:48;3.80;;;2.08;;
58926;SDS011;44712;52.530;9.760;2022-08-11T12:57:27;5.43;;;2.38;;
58926;SDS011;44712;52.530;9.760;2022-08-11T13:03:02;4.63;;;2.40;;
58926;SDS011;44712;52.530;9.760;2022-08-11T13:05:51;4.57;;;2.53;;
58926;SDS011;44712;52.530;9.760;2022-08-11T13:08:21;3.90;;;2.00;;
58926;SDS011;44712;52.530;9.760;2022-08-11T13:10:50;2.45;;;2.05;;
58926;SDS011;44712;52.530;9.760;2022-08-11T13:13:37;3.80;;;2.00;;
58926;SDS011;44712;52.530;9.760;2022-08-11T13:16:32;4.60;;;1.85;;
58926;SDS011;44712;52.530;9.760;2022-08-11T13:19:34;3.05;;;1.83;;
58926;SDS011;44712;52.530;9.760;2022-08-11T13:22:01;3.30;;;1.90;;
58926;SDS011;44712;52.530;9.760;2022-08-11T13:24:30;2.50;;;2.10;;
58926;SDS011;44712;52.530;9.760;2022-08-11T13:26:59;5.43;;;2.28;;
58926;SDS011;44712;52.530;9.760;2022-08-11T13:29:27;2.72;;;1.83;;
58926;SDS011;44712;52.530;9.760;2022-08-11T13:31:55;3.38;;;1.88;;
58926;SDS011;44712;52.530;9.760;2022-08-11T13:34:25;2.17;;;1.83;;
58926;SDS011;44712;52.530;9.760;2022-08-11T13:36:54;2.70;;;1.90;;
58926;SDS011;44712;52.530;9.760;2022-08-11T13:39:22;3.10;;;2.00;;
58926;SDS011;44712;52.530;9.760;2022-08-11T13:41:53;3.40;;;1.90;;
58926;SDS011;44712;52.530;9.760;2022-08-11T13:44:23;1.70;;;1.60;;
58926;SDS011;44712;52.530;9.760;2022-08-11T13:46:55;4.05;;;2.20;;
58926;SDS011;44712;52.530;9.760;2022-08-11T13:49:27;3.95;;;2.10;;
58926;SDS011;44712;52.530;9.760;2022-08-11T13:51:56;2.08;;;1.70;;
58926;SDS011;44712;52.530;9.760;2022-08-11T13:54:28;2.28;;;1.80;;
58926;SDS011;44712;52.530;9.760;2022-08-11T13:56:59;2.60;;;2.20;;
58926;SDS011;44712;52.530;9.760;2022-08-11T13:59:28;3.65;;;2.28;;
58926;SDS011;44712;52.530;9.760;2022-08-11T14:02:00;3.00;;;2.03;;
58926;SDS011;44712;52.530;9.760;2022-08-11T14:07:54;2.55;;;2.20;;
58926;SDS011;44712;52.530;9.760;2022-08-11T14:10:33;2.85;;;2.28;;
58926;SDS011;44712;52.530;9.760;2022-08-11T14:13:08;2.53;;;2.30;;
58926;SDS011;44712;52.530;9.760;2022-08-11T14:16:25;3.28;;;1.90;;
58926;SDS011;44712;52.530;9.760;2022-08-11T14:18:59;5.32;;;2.40;;
58926;SDS011;44712;52.530;9.760;2022-08-11T14:21:29;4.15;;;2.35;;
58926;SDS011;44712;52.530;9.760;2022-08-11T14:24:21;2.72;;;2.13;;
58926;SDS011;44712;52.530;9.760;2022-08-11T14:26:48;3.72;;;2.30;;
58926;SDS011;44712;52.530;9.760;2022-08-11T14:29:18;2.92;;;2.63;;
58926;SDS011;44712;52.530;9.760;2022-08-11T14:31:47;4.43;;;2.53;;
58926;SDS011;44712;52.530;9.760;2022-08-11T14:34:21;2.83;;;2.33;;
58926;SDS011;44712;52.530;9.760;2022-08-11T14:36:54;3.30;;;2.30;;
58926;SDS011;44712;52.530;9.760;2022-08-11T14:39:24;3.10;;;2.20;;
58926;SDS011;44712;52.530;9.760;2022-08-11T14:41:55;4.30;;;2.80;;
58926;SDS011;44712;52.530;9.760;2022-08-11T14:44:47;2.22;;;2.03;;
58926;SDS011;44712;52.530;9.760;2022-08-11T14:47:28;3.95;;;2.72;;
58926;SDS011;44712;52.530;9.760;2022-08-11T14:49:59;3.72;;;2.30;;
58926;SDS011;44712;52.530;9.760;2022-08-11T14:52:59;4.13;;;2.67;;
58926;SDS011;44712;52.530;9.760;2022-08-11T14:55:40;2.78;;;2.13;;
58926;SDS011;44712;52.530;9.760;2022-08-11T14:58:27;2.83;;;2.60;;
58926;SDS011;44712;52.530;9.760;2022-08-11T15:00:57;3.65;;;2.50;;
58926;SDS011;44712;52.530;9.760;2022-08-11T15:03:27;4.30;;;2.85;;
58926;SDS011;44712;52.530;9.760;2022-08-11T15:05:57;2.80;;;2.33;;
58926;SDS011;44712;52.530;9.760;2022-08-11T15:08:30;4.50;;;2.67;;
58926;SDS011;44712;52.530;9.760;2022-08-11T15:11:18;4.25;;;2.50;;
58926;SDS011;44712;52.530;9.760;2022-08-11T15:14:07;4.47;;;2.40;;
58926;SDS011;44712;52.530;9.760;2022-08-11T15:16:35;3.95;;;2.67;;
58926;SDS011;44712;52.530;9.760;2022-08-11T15:19:21;4.65;;;2.60;;
58926;SDS011;44712;52.530;9.760;2022-08-11T15:21:51;3.55;;;2.40;;
58926;SDS011;44712;52.530;9.760;2022-08-11T15:24:36;2.20;;;2.00;;
58926;SDS011;44712;52.530;9.760;2022-08-11T15:27:04;4.60;;;2.63;;
58926;SDS011;44712;52.530;9.760;2022-08-11T15:29:55;3.30;;;2.10;;
58926;SDS011;44712;52.530;9.760;2022-08-11T15:32:59;4.35;;;2.30;;
58926;SDS011;44712;52.530;9.760;2022-08-11T15:35:48;5.97;;;2.55;;
58926;SDS011;44712;52.530;9.760;2022-08-11T15:38:41;5.75;;;2.47;;
58926;SDS011;44712;52.530;9.760;2022-08-11T15:41:12;3.97;;;2.97;;
58926;SDS011;44712;52.530;9.760;2022-08-11T15:44:02;3.28;;;2.60;;
58926;SDS011;44712;52.530;9.760;2022-08-11T15:47:12;3.10;;;2.60;;
58926;SDS011;44712;52.530;9.760;2022-08-11T15:49:43;3.60;;;2.50;;
58926;SDS011;44712;52.530;9.760;2022-08-11T15:52:33;4.38;;;2.40;;
58926;SDS011;44712;52.530;9.760;2022-08-11T15:55:07;8.27;;;3.00;;
58926;SDS011;44712;52.530;9.760;2022-08-11T15:57:34;4.82;;;2.83;;
58926;SDS011;44712;52.530;9.760;2022-08-11T16:00:21;4.47;;;2.78;;
58926;SDS011;44712;52.530;9.760;2022-08-11T16:03:56;5.50;;;2.60;;
58926;SDS011;44712;52.530;9.760;2022-08-11T16:09:32;2.80;;;2.33;;
58926;SDS011;44712;52.530;9.760;2022-08-11T16:12:19;4.13;;;2.40;;
58926;SDS011;44712;52.530;9.760;2022-08-11T16:14:49;3.55;;;2.50;;
58926;SDS011;44712;52.530;9.760;2022-08-11T16:17:41;3.00;;;2.50;;
58926;SDS011;44712;52.530;9.760;2022-08-11T16:20:11;3.30;;;2.50;;
58926;SDS011;44712;52.530;9.760;2022-08-11T16:22:39;5.40;;;2.78;;
58926;SDS011;44712;52.530;9.760;2022-08-11T16:25:28;5.30;;;3.00;;
58926;SDS011;44712;52.530;9.760;2022-08-11T16:28:18;3.97;;;2.40;;
58926;SDS011;44712;52.530;9.760;2022-08-11T16:30:46;3.72;;;2.40;;
58926;SDS011;44712;52.530;9.760;2022-08-11T16:33:14;2.97;;;2.25;;
58926;SDS011;44712;52.530;9.760;2022-08-11T16:36:02;5.07;;;2.55;;
58926;SDS011;44712;52.530;9.760;2022-08-11T16:38:49;5.28;;;2.65;;
58926;SDS011;44712;52.530;9.760;2022-08-11T16:41:17;2.88;;;2.50;;
58926;SDS011;44712;52.530;9.760;2022-08-11T16:44:07;3.58;;;2.47;;
58926;SDS011;44712;52.530;9.760;2022-08-11T16:47:04;3.95;;;2.90;;
58926;SDS011;44712;52.530;9.760;2022-08-11T16:49:37;2.78;;;2.50;;
58926;SDS011;44712;52.530;9.760;2022-08-11T16:52:09;3.33;;;2.42;;
58926;SDS011;44712;52.530;9.760;2022-08-11T16:54:39;2.85;;;2.63;;
58926;SDS011;44712;52.530;9.760;2022-08-11T17:00:12;4.25;;;2.42;;
58926;SDS011;44712;52.530;9.760;2022-08-11T17:02:51;3.53;;;2.53;;
58926;SDS011;44712;52.530;9.760;2022-08-11T17:05:43;7.15;;;2.72;;
58926;SDS011;44712;52.530;9.760;2022-08-11T17:08:38;4.50;;;2.50;;
58926;SDS011;44712;52.530;9.760;2022-08-11T17:11:30;5.13;;;2.63;;
58926;SDS011;44712;52.530;9.760;2022-08-11T17:14:20;5.70;;;2.70;;
58926;SDS011;44712;52.530;9.760;2022-08-11T17:17:02;3.30;;;2.42;;
58926;SDS011;44712;52.530;9.760;2022-08-11T17:19:32;3.20;;;2.72;;
58926;SDS011;44712;52.530;9.760;2022-08-11T17:22:21;4.65;;;4.13;;
58926;SDS011;44712;52.530;9.760;2022-08-11T17:25:18;3.45;;;2.80;;
58926;SDS011;44712;52.530;9.760;2022-08-11T17:27:46;5.63;;;2.95;;
58926;SDS011;44712;52.530;9.760;2022-08-11T17:30:13;3.03;;;2.72;;
58926;SDS011;44712;52.530;9.760;2022-08-11T17:32:42;2.92;;;2.50;;
58926;SDS011;44712;52.530;9.760;2022-08-11T17:35:33;4.53;;;2.70;;
58926;SDS011;44712;52.530;9.760;2022-08-11T17:38:05;3.53;;;2.42;;
58926;SDS011;44712;52.530;9.760;2022-08-11T17:40:37;4.82;;;2.72;;
58926;SDS011;44712;52.530;9.760;2022-08-11T17:43:25;2.65;;;2.40;;
58926;SDS011;44712;52.530;9.760;2022-08-11T17:46:12;2.80;;;2.50;;
58926;SDS011;44712;52.530;9.760;2022-08-11T17:48:59;5.50;;;2.22;;
58926;SDS011;44712;52.530;9.760;2022-08-11T17:51:28;3.38;;;2.33;;
58926;SDS011;44712;52.530;9.760;2022-08-11T17:54:13;3.45;;;2.63;;
58926;SDS011;44712;52.530;9.760;2022-08-11T17:57:01;3.15;;;2.50;;
58926;SDS011;44712;52.530;9.760;2022-08-11T17:59:48;2.40;;;2.20;;
58926;SDS011;44712;52.530;9.760;2022-08-11T18:02:34;2.75;;;2.47;;
58926;SDS011;44712;52.530;9.760;2022-08-11T18:05:56;3.25;;;2.45;;
58926;SDS011;44712;52.530;9.760;2022-08-11T18:08:16;2.65;;;2.42;;
58926;SDS011;44712;52.530;9.760;2022-08-11T18:11:04;3.67;;;2.47;;
58926;SDS011;44712;52.530;9.760;2022-08-11T18:14:13;7.45;;;4.20;;
58926;SDS011;44712;52.530;9.760;2022-08-11T18:17:00;5.03;;;2.90;;
58926;SDS011;44712;52.530;9.760;2022-08-11T18:19:45;2.58;;;2.38;;
58926;SDS011;44712;52.530;9.760;2022-08-11T18:22:36;4.15;;;2.60;;
58926;SDS011;44712;52.530;9.760;2022-08-11T18:25:26;4.97;;;2.33;;
58926;SDS011;44712;52.530;9.760;2022-08-11T18:28:16;4.10;;;2.60;;
58926;SDS011;44712;52.530;9.760;2022-08-11T18:31:09;3.65;;;2.50;;
58926;SDS011;44712;52.530;9.760;2022-08-11T18:33:57;3.92;;;2.40;;
58926;SDS011;44712;52.530;9.760;2022-08-11T18:36:50;3.05;;;2.40;;
58926;SDS011;44712;52.530;9.760;2022-08-11T18:39:51;2.60;;;2.40;;
58926;SDS011;44712;52.530;9.760;2022-08-11T18:42:42;3.67;;;2.25;;
58926;SDS011;44712;52.530;9.760;2022-08-11T18:45:30;3.05;;;2.35;;
58926;SDS011;44712;52.530;9.760;2022-08-11T18:48:32;5.13;;;2.50;;
58926;SDS011;44712;52.530;9.760;2022-08-11T18:51:21;2.80;;;2.60;;
58926;SDS011;44712;52.530;9.760;2022-08-11T18:54:11;3.65;;;2.55;;
58926;SDS011;44712;52.530;9.760;2022-08-11T18:57:00;4.90;;;2.75;;
58926;SDS011;44712;52.530;9.760;2022-08-11T18:59:47;5.47;;;2.75;;
58926;SDS011;44712;52.530;9.760;2022-08-11T19:02:36;5.05;;;3.35;;
58926;SDS011;44712;52.530;9.760;2022-08-11T19:05:23;3.17;;;2.88;;
58926;SDS011;44712;52.530;9.760;2022-08-11T19:08:34;4.57;;;2.65;;
58926;SDS011;44712;52.530;9.760;2022-08-11T19:11:23;5.00;;;2.95;;
58926;SDS011;44712;52.530;9.760;2022-08-11T19:14:10;4.10;;;2.80;;
58926;SDS011;44712;52.530;9.760;2022-08-11T19:16:58;4.30;;;2.72;;
58926;SDS011;44712;52.530;9.760;2022-08-11T19:20:05;3.42;;;2.47;;
58926;SDS011;44712;52.530;9.760;2022-08-11T19:22:55;4.35;;;2.92;;
58926;SDS011;44712;52.530;9.760;2022-08-11T19:25:42;3.85;;;2.58;;
58926;SDS011;44712;52.530;9.760;2022-08-11T19:28:29;3.45;;;2.65;;
58926;SDS011;44712;52.530;9.760;2022-08-11T19:31:15;4.15;;;3.10;;
58926;SDS011;44712;52.530;9.760;2022-08-11T19:34:01;2.83;;;2.58;;
58926;SDS011;44712;52.530;9.760;2022-08-11T19:36:49;3.40;;;2.95;;
58926;SDS011;44712;52.530;9.760;2022-08-11T19:39:36;3.75;;;2.80;;
58926;SDS011;44712;52.530;9.760;2022-08-11T19:42:25;3.30;;;2.80;;
58926;SDS011;44712;52.530;9.760;2022-08-11T19:45:12;4.13;;;3.30;;
58926;SDS011;44712;52.530;9.760;2022-08-11T19:48:00;3.13;;;2.83;;
58926;SDS011;44712;52.530;9.760;2022-08-11T19:50:58;3.90;;;2.83;;
58926;SDS011;44712;52.530;9.760;2022-08-11T19:53:45;3.30;;;2.78;;
58926;SDS011;44712;52.530;9.760;2022-08-11T19:56:32;3.15;;;2.85;;
58926;SDS011;44712;52.530;9.760;2022-08-11T19:59:20;3.45;;;3.15;;
58926;SDS011;44712;52.530;9.760;2022-08-11T20:02:06;3.28;;;2.97;;
58926;SDS011;44712;52.530;9.760;2022-08-11T20:04:53;4.63;;;2.92;;